Time;durP1;ratioP1;P1;durP2;ratioP2;P2;SDS_P1;SDS_P2;PMS_P1;PMS_P2;Temp;Humidity;BMP_temperature;BMP_pressure;BME280_temperature;BME280_humidity;BME280_pressure;Samples;Min_cycle;Max_cycle;Signal;HPM_P1;HPM_P2
2024/03/30 00:00:47;;;;;;;7.18;2.80;;;;;;;;;;4925394;28;20207;-90
2024/03/30 00:03:54;;;;;;;5.88;2.45;;;;;;;;;;4927369;28;20232;-90
2024/03/30 00:06:59;;;;;;;7.38;2.40;;;;;;;;;;4924726;29;20203;-89
2024/03/30 00:10:06;;;;;;;13.07;3.15;;;;;;;;;;4938416;28;20241;-89
2024/03/30 00:13:11;;;;;;;13.10;3.80;;;;;;;;;;4924995;28;20183;-89
2024/03/30 00:16:16;;;;;;;8.70;3.10;;;;;;;;;;4926967;28;20264;-91
2024/03/30 00:19:20;;;;;;;10.68;3.78;;;;;;;;;;4926376;28;20192;-88
2024/03/30 00:22:25;;;;;;;9.57;2.60;;;;;;;;;;4926183;28;20220;-90
2024/03/30 00:25:31;;;;;;;13.63;3.13;;;;;;;;;;4925247;28;20212;-89
2024/03/30 00:28:36;;;;;;;14.70;3.15;;;;;;;;;;4924761;28;20231;-90
2024/03/30 00:31:40;;;;;;;10.85;2.97;;;;;;;;;;4936716;28;20286;-90
2024/03/30 00:34:45;;;;;;;8.05;2.92;;;;;;;;;;4926313;28;20187;-89
2024/03/30 00:37:53;;;;;;;10.07;2.75;;;;;;;;;;4925831;28;20184;-90
2024/03/30 00:41:00;;;;;;;5.75;2.78;;;;;;;;;;4925431;28;20208;-88
2024/03/30 00:44:04;;;;;;;8.18;3.38;;;;;;;;;;4927236;28;20200;-89
2024/03/30 00:47:10;;;;;;;4.95;2.30;;;;;;;;;;4926684;29;20220;-89
2024/03/30 00:50:14;;;;;;;7.80;2.63;;;;;;;;;;4925175;29;20321;-90
2024/03/30 00:53:19;;;;;;;15.80;3.25;;;;;;;;;;4926477;28;20227;-89
2024/03/30 00:56:29;;;;;;;8.93;3.03;;;;;;;;;;4926970;28;20216;-89
2024/03/30 00:59:36;;;;;;;13.20;3.42;;;;;;;;;;4934100;28;20205;-91
2024/03/30 01:02:41;;;;;;;16.58;3.00;;;;;;;;;;4925526;28;20203;-89
2024/03/30 01:05:46;;;;;;;8.90;2.67;;;;;;;;;;4936456;28;20206;-89
2024/03/30 01:08:50;;;;;;;7.53;2.53;;;;;;;;;;4933807;28;20330;-91
2024/03/30 01:11:57;;;;;;;12.43;3.72;;;;;;;;;;4906393;29;20245;-90
2024/03/30 01:15:02;;;;;;;10.55;3.40;;;;;;;;;;4916461;28;20220;-91
2024/03/30 01:18:08;;;;;;;10.88;2.72;;;;;;;;;;4916084;28;20220;-89
2024/03/30 01:21:12;;;;;;;13.00;2.85;;;;;;;;;;4905041;29;20184;-90
2024/03/30 01:24:17;;;;;;;16.50;2.72;;;;;;;;;;4924965;28;20220;-89
2024/03/30 01:27:24;;;;;;;15.68;2.88;;;;;;;;;;4924807;28;20200;-89
2024/03/30 01:30:30;;;;;;;21.45;5.07;;;;;;;;;;4926744;28;20294;-90
2024/03/30 01:33:35;;;;;;;21.30;6.78;;;;;;;;;;4928240;28;20208;-89
2024/03/30 01:36:40;;;;;;;13.90;4.47;;;;;;;;;;4940485;28;20305;-90
2024/03/30 01:39:45;;;;;;;8.10;2.72;;;;;;;;;;4941322;28;20225;-89
2024/03/30 01:42:50;;;;;;;7.63;2.67;;;;;;;;;;4940660;28;20192;-89
2024/03/30 01:45:57;;;;;;;18.33;5.18;;;;;;;;;;4938834;28;20231;-89
2024/03/30 01:49:03;;;;;;;12.82;2.47;;;;;;;;;;4938119;28;20183;-89
2024/03/30 01:52:09;;;;;;;15.65;3.25;;;;;;;;;;4938554;28;20203;-89
2024/03/30 01:55:13;;;;;;;14.40;3.45;;;;;;;;;;4937523;28;20200;-89
2024/03/30 01:58:21;;;;;;;12.05;3.67;;;;;;;;;;4938895;28;20225;-88
2024/03/30 02:01:26;;;;;;;16.17;3.38;;;;;;;;;;4925813;28;20210;-90
2024/03/30 02:04:32;;;;;;;12.13;3.58;;;;;;;;;;4926493;28;20212;-89
2024/03/30 02:07:36;;;;;;;13.48;3.28;;;;;;;;;;4925459;29;20715;-88
2024/03/30 02:10:42;;;;;;;17.10;3.70;;;;;;;;;;4926083;29;20202;-90
2024/03/30 02:13:48;;;;;;;21.15;4.03;;;;;;;;;;4926166;28;20267;-90
2024/03/30 02:16:53;;;;;;;13.07;2.72;;;;;;;;;;4925450;28;20235;-90
2024/03/30 02:19:57;;;;;;;14.60;3.00;;;;;;;;;;4928754;29;20215;-89
2024/03/30 02:23:02;;;;;;;15.30;2.35;;;;;;;;;;4938766;28;20200;-91
2024/03/30 02:26:08;;;;;;;10.68;2.58;;;;;;;;;;4938691;28;20244;-89
2024/03/30 02:29:14;;;;;;;15.27;3.00;;;;;;;;;;4937625;28;20219;-89
2024/03/30 02:32:19;;;;;;;6.45;2.53;;;;;;;;;;4927695;28;20559;-89
2024/03/30 02:35:25;;;;;;;7.70;2.45;;;;;;;;;;4926579;28;20191;-90
2024/03/30 02:38:30;;;;;;;7.00;2.60;;;;;;;;;;4927895;28;20207;-90
2024/03/30 02:41:37;;;;;;;13.88;2.83;;;;;;;;;;4937633;29;20207;-89
2024/03/30 02:44:41;;;;;;;8.88;2.60;;;;;;;;;;4926719;28;20188;-90
2024/03/30 02:47:47;;;;;;;9.25;2.63;;;;;;;;;;4935738;28;20244;-89
2024/03/30 02:50:51;;;;;;;8.35;2.25;;;;;;;;;;4935749;28;20196;-89
2024/03/30 02:53:56;;;;;;;12.50;2.40;;;;;;;;;;4936944;28;20191;-90
2024/03/30 02:57:02;;;;;;;10.80;2.78;;;;;;;;;;4926603;28;20262;-89
2024/03/30 03:00:09;;;;;;;9.23;2.58;;;;;;;;;;4938840;28;20199;-90
2024/03/30 03:03:14;;;;;;;12.50;2.80;;;;;;;;;;4927080;28;20191;-89
2024/03/30 03:06:19;;;;;;;10.07;2.47;;;;;;;;;;4927224;29;20223;-89
2024/03/30 03:09:23;;;;;;;11.75;3.20;;;;;;;;;;4926896;28;20192;-90
2024/03/30 03:12:30;;;;;;;20.13;3.17;;;;;;;;;;4938896;28;20219;-90
2024/03/30 03:15:38;;;;;;;8.32;2.72;;;;;;;;;;4928738;28;20764;-90
2024/03/30 03:18:43;;;;;;;13.93;3.22;;;;;;;;;;4927392;28;20200;-91
2024/03/30 03:21:47;;;;;;;12.65;2.78;;;;;;;;;;4939567;28;20191;-89
2024/03/30 03:24:52;;;;;;;13.07;3.03;;;;;;;;;;4926445;28;20196;-89
2024/03/30 03:27:58;;;;;;;10.98;3.20;;;;;;;;;;4937882;28;20289;-90
2024/03/30 03:31:03;;;;;;;17.17;2.97;;;;;;;;;;4926300;29;20199;-91
2024/03/30 03:34:08;;;;;;;17.17;3.63;;;;;;;;;;4927049;28;20214;-89
2024/03/30 03:37:12;;;;;;;16.25;2.90;;;;;;;;;;4926445;28;20283;-89
2024/03/30 03:40:18;;;;;;;17.25;3.25;;;;;;;;;;4925066;29;20209;-90
2024/03/30 03:43:23;;;;;;;17.83;3.20;;;;;;;;;;4926531;28;20288;-91
2024/03/30 03:46:29;;;;;;;11.82;2.90;;;;;;;;;;4925649;28;20239;-91
2024/03/30 03:49:33;;;;;;;14.93;3.03;;;;;;;;;;4927137;29;20664;-91
2024/03/30 03:52:38;;;;;;;15.23;3.42;;;;;;;;;;4936551;28;20229;-90
2024/03/30 03:55:45;;;;;;;19.45;2.90;;;;;;;;;;4925509;29;20199;-89
2024/03/30 03:58:51;;;;;;;15.40;3.00;;;;;;;;;;4937618;28;20191;-88
2024/03/30 04:01:56;;;;;;;14.00;2.65;;;;;;;;;;4938160;28;20207;-89
2024/03/30 04:05:01;;;;;;;12.75;3.38;;;;;;;;;;4926718;28;20204;-88
2024/03/30 04:08:05;;;;;;;15.70;3.42;;;;;;;;;;4923990;29;20191;-88
2024/03/30 04:11:15;;;;;;;13.15;3.13;;;;;;;;;;4924518;28;20817;-88
2024/03/30 04:14:20;;;;;;;15.38;2.80;;;;;;;;;;4924584;29;20191;-89
2024/03/30 04:17:26;;;;;;;14.38;2.97;;;;;;;;;;4926770;29;20221;-89
2024/03/30 04:20:29;;;;;;;24.60;3.13;;;;;;;;;;4926740;29;20232;-89
2024/03/30 04:23:34;;;;;;;22.05;3.25;;;;;;;;;;4936943;28;20187;-88
2024/03/30 04:26:39;;;;;;;15.27;3.10;;;;;;;;;;4924078;29;20191;-88
2024/03/30 04:29:45;;;;;;;20.35;3.40;;;;;;;;;;4921996;29;20214;-90
2024/03/30 04:32:49;;;;;;;20.20;4.28;;;;;;;;;;4922970;28;20228;-90
2024/03/30 04:35:58;;;;;;;18.83;4.03;;;;;;;;;;4924434;28;20203;-90
2024/03/30 04:39:04;;;;;;;21.95;3.63;;;;;;;;;;4924351;28;20212;-90
2024/03/30 04:42:10;;;;;;;19.85;3.20;;;;;;;;;;4934183;28;20200;-89
2024/03/30 04:45:17;;;;;;;27.08;4.32;;;;;;;;;;4922414;28;20208;-90
2024/03/30 04:48:25;;;;;;;26.40;3.60;;;;;;;;;;4926273;28;20231;-88
2024/03/30 04:51:30;;;;;;;26.00;4.22;;;;;;;;;;4936470;28;20276;-89
2024/03/30 04:54:35;;;;;;;38.00;7.38;;;;;;;;;;4936059;28;20210;-89
2024/03/30 04:57:39;;;;;;;40.00;6.70;;;;;;;;;;4924463;28;20707;-89
2024/03/30 05:00:46;;;;;;;40.70;4.93;;;;;;;;;;4924135;28;20236;-91
2024/03/30 05:03:56;;;;;;;35.40;4.53;;;;;;;;;;4936308;28;20175;-88
2024/03/30 05:07:00;;;;;;;25.40;4.45;;;;;;;;;;4928973;28;20195;-90
2024/03/30 05:10:05;;;;;;;28.88;4.85;;;;;;;;;;4930140;28;20215;-90
2024/03/30 05:13:10;;;;;;;31.90;4.22;;;;;;;;;;4927810;28;20243;-90
2024/03/30 05:16:16;;;;;;;27.88;3.95;;;;;;;;;;4929084;28;20296;-89
2024/03/30 05:22:49;;;;;;;27.65;4.60;;;;;;;;;;4915843;29;20211;-90
2024/03/30 05:25:55;;;;;;;27.25;4.55;;;;;;;;;;4916501;29;20192;-90
2024/03/30 05:28:59;;;;;;;31.20;5.55;;;;;;;;;;4928796;28;20215;-90
2024/03/30 05:32:06;;;;;;;36.00;4.68;;;;;;;;;;4937879;29;20216;-91
2024/03/30 05:35:10;;;;;;;36.92;5.00;;;;;;;;;;4913156;29;20200;-88
2024/03/30 05:38:16;;;;;;;47.85;5.45;;;;;;;;;;4910291;29;20277;-89
2024/03/30 05:41:20;;;;;;;19.95;3.97;;;;;;;;;;4920399;28;20293;-90
2024/03/30 05:44:29;;;;;;;29.00;4.70;;;;;;;;;;4926315;28;20256;-90
2024/03/30 05:47:34;;;;;;;27.92;4.50;;;;;;;;;;4928367;28;20247;-90
2024/03/30 05:50:40;;;;;;;39.00;4.55;;;;;;;;;;4939594;28;20179;-89
2024/03/30 05:53:46;;;;;;;37.00;5.03;;;;;;;;;;4928684;28;20572;-91
2024/03/30 05:56:52;;;;;;;36.60;5.30;;;;;;;;;;4939806;28;20726;-91
2024/03/30 05:59:57;;;;;;;44.15;4.88;;;;;;;;;;4928473;28;20192;-91
2024/03/30 06:03:03;;;;;;;35.90;4.80;;;;;;;;;;4920886;29;20204;-90
2024/03/30 06:06:07;;;;;;;38.72;5.38;;;;;;;;;;4919984;28;20196;-90
2024/03/30 06:09:13;;;;;;;34.50;5.82;;;;;;;;;;4909877;29;20191;-91
2024/03/30 06:12:18;;;;;;;37.50;5.45;;;;;;;;;;4921780;28;20205;-90
2024/03/30 06:15:23;;;;;;;40.90;5.13;;;;;;;;;;4920014;29;20672;-91
2024/03/30 06:18:29;;;;;;;38.42;6.15;;;;;;;;;;4919681;29;20782;-90
2024/03/30 06:21:34;;;;;;;33.00;6.18;;;;;;;;;;4909339;29;20196;-91
2024/03/30 06:24:41;;;;;;;42.63;5.55;;;;;;;;;;4920748;29;20196;-90
2024/03/30 06:27:45;;;;;;;60.42;5.95;;;;;;;;;;4920309;29;20204;-91
2024/03/30 06:30:51;;;;;;;47.40;5.80;;;;;;;;;;4939564;28;20205;-91
2024/03/30 06:33:58;;;;;;;55.50;6.47;;;;;;;;;;4939239;28;20188;-90
2024/03/30 06:37:04;;;;;;;44.95;6.15;;;;;;;;;;4935973;28;20212;-88
2024/03/30 06:43:44;;;;;;;50.60;6.10;;;;;;;;;;4937861;28;20268;-89
2024/03/30 06:46:49;;;;;;;64.10;6.63;;;;;;;;;;4918566;28;20189;-90
2024/03/30 06:49:56;;;;;;;46.50;7.57;;;;;;;;;;4919007;28;20262;-90
2024/03/30 06:53:01;;;;;;;54.40;7.47;;;;;;;;;;4906354;29;20177;-88
2024/03/30 06:56:06;;;;;;;47.40;6.22;;;;;;;;;;4906663;29;20184;-89
2024/03/30 06:59:12;;;;;;;52.40;6.32;;;;;;;;;;4906606;29;20291;-89
2024/03/30 07:02:17;;;;;;;49.67;7.05;;;;;;;;;;4907752;29;20197;-89
2024/03/30 07:05:23;;;;;;;57.08;8.02;;;;;;;;;;4917774;28;20226;-90
2024/03/30 07:08:27;;;;;;;57.88;8.90;;;;;;;;;;4918353;29;20215;-90
2024/03/30 07:11:33;;;;;;;72.32;8.75;;;;;;;;;;4919970;29;20272;-90
2024/03/30 07:14:37;;;;;;;61.97;8.10;;;;;;;;;;4920143;28;20317;-90
2024/03/30 07:17:42;;;;;;;76.85;9.75;;;;;;;;;;4929662;28;20707;-90
2024/03/30 07:20:47;;;;;;;70.10;8.32;;;;;;;;;;4925969;29;20296;-90
2024/03/30 07:23:52;;;;;;;62.60;8.00;;;;;;;;;;4926607;28;20195;-90
2024/03/30 07:26:58;;;;;;;62.03;7.65;;;;;;;;;;4925955;28;20203;-89
2024/03/30 07:30:02;;;;;;;77.47;8.95;;;;;;;;;;4937038;28;20188;-89
2024/03/30 07:33:07;;;;;;;67.93;7.68;;;;;;;;;;4925862;28;20218;-89
2024/03/30 07:36:13;;;;;;;62.60;7.68;;;;;;;;;;4924229;29;20727;-90
2024/03/30 07:39:18;;;;;;;75.32;8.85;;;;;;;;;;4937583;28;20207;-90
2024/03/30 07:42:23;;;;;;;69.20;8.55;;;;;;;;;;4937458;28;20200;-91
2024/03/30 07:45:28;;;;;;;81.85;8.48;;;;;;;;;;4926792;28;20241;-90
2024/03/30 07:48:32;;;;;;;59.65;8.30;;;;;;;;;;4907333;29;20262;-91
2024/03/30 07:51:39;;;;;;;62.75;8.30;;;;;;;;;;4907210;29;20192;-89
2024/03/30 07:54:43;;;;;;;58.70;8.45;;;;;;;;;;4919850;29;20192;-89
2024/03/30 07:57:48;;;;;;;83.82;7.70;;;;;;;;;;4919489;29;20248;-89
2024/03/30 08:00:53;;;;;;;71.07;7.88;;;;;;;;;;4913890;29;20191;-90
2024/03/30 08:03:58;;;;;;;65.35;7.63;;;;;;;;;;4927198;28;20290;-90
2024/03/30 08:07:06;;;;;;;76.50;8.93;;;;;;;;;;4927234;28;20202;-90
2024/03/30 08:10:10;;;;;;;112.47;11.55;;;;;;;;;;4926703;28;20192;-89
2024/03/30 08:13:15;;;;;;;70.75;8.13;;;;;;;;;;4926231;28;20195;-90
2024/03/30 08:16:19;;;;;;;89.78;9.60;;;;;;;;;;4925782;28;20200;-89
2024/03/30 08:19:24;;;;;;;76.75;10.45;;;;;;;;;;4937229;28;20192;-90
2024/03/30 08:22:30;;;;;;;77.20;9.00;;;;;;;;;;4925397;28;20224;-87
2024/03/30 08:25:35;;;;;;;86.47;9.55;;;;;;;;;;4937628;29;20191;-91
2024/03/30 08:28:39;;;;;;;80.82;9.32;;;;;;;;;;4926542;29;20220;-89
2024/03/30 08:31:45;;;;;;;96.97;10.18;;;;;;;;;;4937063;29;20191;-90
2024/03/30 08:34:50;;;;;;;104.47;14.50;;;;;;;;;;4925709;29;20196;-90
2024/03/30 08:37:56;;;;;;;87.05;9.82;;;;;;;;;;4937301;29;20254;-91
2024/03/30 08:41:01;;;;;;;87.78;9.55;;;;;;;;;;4933905;29;20203;-90
2024/03/30 08:44:06;;;;;;;75.70;11.25;;;;;;;;;;4935875;28;20269;-93
2024/03/30 08:47:12;;;;;;;99.25;13.05;;;;;;;;;;4926789;28;20777;-91
2024/03/30 08:50:17;;;;;;;92.70;11.48;;;;;;;;;;4925329;29;20211;-92
2024/03/30 08:53:24;;;;;;;71.43;10.57;;;;;;;;;;4925895;28;20186;-91
2024/03/30 08:56:29;;;;;;;89.72;12.05;;;;;;;;;;4926050;28;20668;-90
2024/03/30 08:59:33;;;;;;;78.68;10.00;;;;;;;;;;4936617;28;20228;-91
2024/03/30 09:02:39;;;;;;;74.80;10.18;;;;;;;;;;4928294;28;20196;-91
2024/03/30 09:05:44;;;;;;;78.03;9.45;;;;;;;;;;4923863;29;20271;-90
2024/03/30 09:08:50;;;;;;;72.28;8.93;;;;;;;;;;4907196;29;20377;-90
2024/03/30 09:12:01;;;;;;;61.50;8.30;;;;;;;;;;4918063;28;20626;-91
2024/03/30 09:15:06;;;;;;;84.65;8.73;;;;;;;;;;4939355;28;20236;-93
2024/03/30 09:18:11;;;;;;;85.47;8.75;;;;;;;;;;4938630;28;20251;-91
2024/03/30 09:21:15;;;;;;;76.93;8.38;;;;;;;;;;4926216;28;20176;-92
2024/03/30 09:24:23;;;;;;;86.82;8.77;;;;;;;;;;4938564;28;20235;-91
2024/03/30 09:27:28;;;;;;;74.82;9.43;;;;;;;;;;4925780;28;20192;-92
2024/03/30 09:30:33;;;;;;;70.50;8.82;;;;;;;;;;4928991;29;20212;-91
2024/03/30 09:33:39;;;;;;;73.25;8.65;;;;;;;;;;4925291;29;20188;-91
2024/03/30 09:36:43;;;;;;;66.75;8.50;;;;;;;;;;4925446;28;20204;-92
2024/03/30 09:39:50;;;;;;;58.20;7.10;;;;;;;;;;4925354;29;20200;-92
2024/03/30 09:42:54;;;;;;;52.20;6.80;;;;;;;;;;4927973;29;20651;-90
2024/03/30 09:46:00;;;;;;;60.53;7.90;;;;;;;;;;4937981;28;20191;-92
2024/03/30 09:49:06;;;;;;;59.47;6.72;;;;;;;;;;4925884;29;20200;-92
2024/03/30 09:52:11;;;;;;;64.38;6.35;;;;;;;;;;4925801;29;20204;-92
2024/03/30 09:55:26;;;;;;;50.60;6.20;;;;;;;;;;4932540;28;20196;-91
2024/03/30 09:58:31;;;;;;;54.72;6.28;;;;;;;;;;4931168;28;20219;-95
2024/03/30 10:01:37;;;;;;;44.70;5.25;;;;;;;;;;4918883;29;20249;-93
2024/03/30 10:04:42;;;;;;;53.13;5.75;;;;;;;;;;4939956;28;20224;-92
2024/03/30 10:07:48;;;;;;;54.63;10.02;;;;;;;;;;4927538;28;20196;-91
2024/03/30 10:10:59;;;;;;;209.57;50.00;;;;;;;;;;4926986;28;20236;-92
2024/03/30 10:14:07;;;;;;;62.85;7.63;;;;;;;;;;4928568;28;20172;-92
2024/03/30 10:17:13;;;;;;;50.33;5.80;;;;;;;;;;4930051;29;20219;-93
2024/03/30 10:20:19;;;;;;;53.67;5.97;;;;;;;;;;4943004;29;20225;-93
2024/03/30 10:23:23;;;;;;;44.78;6.10;;;;;;;;;;4931427;28;20220;-92
2024/03/30 11:11:15;;;;;;;44.67;5.03;;;;;;;;;;5351553;23;20254;-90
2024/03/30 11:14:21;;;;;;;58.47;5.20;;;;;;;;;;4951296;29;20206;-91
2024/03/30 11:17:27;;;;;;;36.88;5.13;;;;;;;;;;4942911;28;20234;-91
2024/03/30 11:20:35;;;;;;;53.90;5.25;;;;;;;;;;4936162;29;20204;-90
2024/03/30 11:23:49;;;;;;;43.30;4.70;;;;;;;;;;4926080;28;20272;-90
2024/03/30 11:27:00;;;;;;;39.53;4.60;;;;;;;;;;4924489;29;20219;-91
2024/03/30 11:30:08;;;;;;;33.17;4.82;;;;;;;;;;4924730;28;20219;-93
2024/03/30 11:33:19;;;;;;;36.13;4.70;;;;;;;;;;4925591;28;20608;-92
2024/03/30 11:36:32;;;;;;;38.08;5.57;;;;;;;;;;4925177;29;20202;-92
2024/03/30 11:39:42;;;;;;;56.58;5.95;;;;;;;;;;4926692;29;20207;-92
2024/03/30 11:42:49;;;;;;;41.13;7.85;;;;;;;;;;4925782;28;20302;-92
2024/03/30 11:45:56;;;;;;;45.10;4.75;;;;;;;;;;4928797;29;20179;-91
2024/03/30 11:49:01;;;;;;;33.88;4.15;;;;;;;;;;4925930;29;20257;-90
2024/03/30 11:52:12;;;;;;;46.42;5.05;;;;;;;;;;4924891;28;20183;-90
2024/03/30 11:55:23;;;;;;;40.25;5.22;;;;;;;;;;4925676;28;20261;-90
2024/03/30 11:58:31;;;;;;;33.03;4.13;;;;;;;;;;4926560;28;20580;-92
2024/03/30 12:01:35;;;;;;;44.42;5.50;;;;;;;;;;4927656;28;20259;-90
2024/03/30 12:04:46;;;;;;;48.80;5.15;;;;;;;;;;4930517;28;20187;-90
2024/03/30 12:07:53;;;;;;;38.90;4.78;;;;;;;;;;4928821;29;20211;-90
2024/03/30 12:11:04;;;;;;;40.90;5.35;;;;;;;;;;4924968;28;20223;-92
2024/03/30 12:14:09;;;;;;;42.10;6.18;;;;;;;;;;4927613;28;20183;-92
2024/03/30 12:17:19;;;;;;;48.35;5.72;;;;;;;;;;4923536;29;20259;-90
2024/03/30 12:20:24;;;;;;;42.40;5.30;;;;;;;;;;4924309;28;20203;-92
2024/03/30 12:23:29;;;;;;;54.28;5.25;;;;;;;;;;4924818;28;20267;-91
2024/03/30 12:26:33;;;;;;;55.05;5.72;;;;;;;;;;4923891;28;20187;-91
2024/03/30 12:29:40;;;;;;;43.85;5.47;;;;;;;;;;4924127;28;20194;-92
2024/03/30 12:32:45;;;;;;;52.33;6.25;;;;;;;;;;4925354;28;20191;-91
2024/03/30 12:35:50;;;;;;;72.70;6.25;;;;;;;;;;4924291;28;20203;-92
2024/03/30 12:38:55;;;;;;;43.22;6.18;;;;;;;;;;4926641;29;20233;-92
2024/03/30 12:42:01;;;;;;;53.95;6.50;;;;;;;;;;4930101;29;20211;-91
2024/03/30 12:45:09;;;;;;;47.67;5.07;;;;;;;;;;4925829;29;20243;-92
2024/03/30 12:48:15;;;;;;;53.33;6.93;;;;;;;;;;4925575;28;20192;-91
2024/03/30 12:51:20;;;;;;;70.32;6.65;;;;;;;;;;4926575;28;20194;-91
2024/03/30 12:54:26;;;;;;;41.47;5.13;;;;;;;;;;4935798;28;20187;-91
2024/03/30 12:57:31;;;;;;;63.35;6.13;;;;;;;;;;4925003;29;20735;-92
2024/03/30 13:00:37;;;;;;;56.65;6.47;;;;;;;;;;4923983;29;20216;-91
2024/03/30 13:03:42;;;;;;;63.13;6.80;;;;;;;;;;4924221;29;20214;-91
2024/03/30 13:06:47;;;;;;;56.15;6.03;;;;;;;;;;4924581;29;20290;-92
2024/03/30 13:09:51;;;;;;;44.95;6.22;;;;;;;;;;4925366;28;20195;-90
2024/03/30 13:12:57;;;;;;;68.13;7.43;;;;;;;;;;4926615;28;20206;-92
2024/03/30 13:16:05;;;;;;;61.80;6.40;;;;;;;;;;4924373;29;20195;-91
2024/03/30 13:19:12;;;;;;;57.95;6.60;;;;;;;;;;4923670;29;20219;-91
2024/03/30 13:22:17;;;;;;;57.08;6.35;;;;;;;;;;4923415;28;20187;-91
2024/03/30 13:25:22;;;;;;;61.05;6.47;;;;;;;;;;4926550;28;20188;-92
2024/03/30 13:28:26;;;;;;;45.72;5.72;;;;;;;;;;4928183;28;20184;-92
2024/03/30 13:31:33;;;;;;;57.63;5.95;;;;;;;;;;4928272;28;20192;-91
2024/03/30 13:34:39;;;;;;;49.17;5.65;;;;;;;;;;4930883;29;20281;-91
2024/03/30 13:37:45;;;;;;;55.92;6.13;;;;;;;;;;4928011;29;20236;-91
2024/03/30 13:40:51;;;;;;;54.95;6.07;;;;;;;;;;4928874;28;20191;-90
2024/03/30 13:43:56;;;;;;;48.05;6.20;;;;;;;;;;4940952;29;20271;-92
2024/03/30 13:47:03;;;;;;;68.95;6.93;;;;;;;;;;4927171;28;20179;-92
2024/03/30 13:50:07;;;;;;;49.83;6.53;;;;;;;;;;4930002;28;20679;-92
2024/03/30 13:53:13;;;;;;;58.25;7.05;;;;;;;;;;4929198;29;20214;-91
2024/03/30 13:56:18;;;;;;;56.40;6.55;;;;;;;;;;4929713;28;20187;-92
2024/03/30 13:59:23;;;;;;;47.78;6.07;;;;;;;;;;4927519;29;20238;-92
2024/03/30 14:02:29;;;;;;;52.10;5.72;;;;;;;;;;4930534;29;20211;-92
2024/03/30 14:05:33;;;;;;;52.67;6.45;;;;;;;;;;4928699;28;20211;-92
2024/03/30 14:08:37;;;;;;;56.80;6.20;;;;;;;;;;4929187;28;20223;-91
2024/03/30 14:11:42;;;;;;;59.33;6.05;;;;;;;;;;4927190;28;20626;-91
2024/03/30 14:14:48;;;;;;;55.50;6.78;;;;;;;;;;4928375;29;20195;-90
2024/03/30 14:17:54;;;;;;;58.15;5.30;;;;;;;;;;4928181;28;20283;-91
2024/03/30 14:21:04;;;;;;;53.10;5.68;;;;;;;;;;4941068;28;20187;-92
2024/03/30 14:24:10;;;;;;;30.83;4.78;;;;;;;;;;4927933;28;20183;-92
2024/03/30 14:27:16;;;;;;;54.35;6.63;;;;;;;;;;4926645;28;20243;-92
2024/03/30 14:30:21;;;;;;;44.42;5.00;;;;;;;;;;4938293;29;20204;-91
2024/03/30 14:33:27;;;;;;;55.60;5.63;;;;;;;;;;4937572;28;20559;-91
2024/03/30 14:36:32;;;;;;;60.70;5.70;;;;;;;;;;4927344;28;20207;-91
2024/03/30 14:39:36;;;;;;;73.13;6.20;;;;;;;;;;4928626;28;20219;-93
2024/03/30 14:42:42;;;;;;;53.38;6.97;;;;;;;;;;4938402;28;20259;-91
2024/03/30 14:45:48;;;;;;;72.40;6.85;;;;;;;;;;4939399;29;20195;-90
2024/03/30 14:48:55;;;;;;;59.80;5.80;;;;;;;;;;4930245;28;20204;-90
2024/03/30 14:51:59;;;;;;;65.63;5.57;;;;;;;;;;4928376;28;20225;-90
2024/03/30 14:55:04;;;;;;;60.35;5.80;;;;;;;;;;4929285;29;20183;-91
2024/03/30 14:58:09;;;;;;;58.70;8.48;;;;;;;;;;4925755;29;20282;-91
2024/03/30 15:01:14;;;;;;;54.28;6.07;;;;;;;;;;4927543;28;20191;-92
2024/03/30 15:04:20;;;;;;;49.90;6.28;;;;;;;;;;4927347;28;20223;-92
2024/03/30 15:07:26;;;;;;;56.75;6.75;;;;;;;;;;4928578;28;20196;-90
2024/03/30 15:10:32;;;;;;;50.25;5.78;;;;;;;;;;4926744;28;20215;-90
2024/03/30 15:13:36;;;;;;;58.63;6.07;;;;;;;;;;4935495;28;20215;-91
2024/03/30 15:16:40;;;;;;;61.22;6.80;;;;;;;;;;4945272;28;20215;-91
2024/03/30 15:19:47;;;;;;;66.30;6.85;;;;;;;;;;4943270;28;20226;-91
2024/03/30 15:22:52;;;;;;;56.63;5.65;;;;;;;;;;4951354;28;20394;-91
2024/03/30 15:25:57;;;;;;;54.83;8.27;;;;;;;;;;4952918;28;20250;-91
2024/03/30 15:29:02;;;;;;;55.47;6.95;;;;;;;;;;4939081;29;20229;-91
2024/03/30 15:32:20;;;;;;;56.38;5.95;;;;;;;;;;4940330;28;20203;-92
2024/03/30 15:35:27;;;;;;;50.38;5.82;;;;;;;;;;4942793;29;20191;-92
2024/03/30 15:38:32;;;;;;;55.55;7.35;;;;;;;;;;4947033;28;20226;-91
2024/03/30 15:41:37;;;;;;;55.15;5.90;;;;;;;;;;4933117;29;20211;-93
2024/03/30 15:44:43;;;;;;;57.05;6.82;;;;;;;;;;4955918;28;20195;-93
2024/03/30 15:47:58;;;;;;;58.42;5.72;;;;;;;;;;4945829;28;20218;-92
2024/03/30 15:51:06;;;;;;;53.88;6.13;;;;;;;;;;4946295;28;20301;-94
2024/03/30 15:54:11;;;;;;;57.72;6.38;;;;;;;;;;4934455;28;20203;-90
2024/03/30 15:57:16;;;;;;;74.28;6.88;;;;;;;;;;4957824;28;20194;-93
2024/03/30 16:00:20;;;;;;;51.35;6.60;;;;;;;;;;4951468;28;20289;-92
2024/03/30 16:03:26;;;;;;;54.10;6.43;;;;;;;;;;4961352;29;20194;-91
2024/03/30 16:06:34;;;;;;;59.78;6.05;;;;;;;;;;4933330;28;20312;-89
2024/03/30 16:09:39;;;;;;;63.35;6.43;;;;;;;;;;4952090;28;20206;-91
2024/03/30 16:12:43;;;;;;;53.88;5.95;;;;;;;;;;4963299;28;20214;-92
2024/03/30 16:15:48;;;;;;;58.13;6.57;;;;;;;;;;4966400;28;20210;-92
2024/03/30 16:18:52;;;;;;;67.53;6.13;;;;;;;;;;4945919;29;20246;-91
2024/03/30 16:22:00;;;;;;;57.10;6.20;;;;;;;;;;4947295;28;20219;-92
2024/03/30 16:25:05;;;;;;;63.95;6.88;;;;;;;;;;4944944;28;20191;-90
2024/03/30 16:28:11;;;;;;;61.40;6.38;;;;;;;;;;4945003;28;20214;-91
2024/03/30 16:31:15;;;;;;;62.10;7.85;;;;;;;;;;4945724;28;20167;-91
2024/03/30 16:34:21;;;;;;;61.47;7.28;;;;;;;;;;4940168;28;20220;-93
2024/03/30 16:37:28;;;;;;;81.10;8.45;;;;;;;;;;4941652;28;20335;-91
2024/03/30 16:40:34;;;;;;;66.40;7.80;;;;;;;;;;4945545;28;20195;-92
2024/03/30 16:43:39;;;;;;;62.85;7.72;;;;;;;;;;4945604;28;20218;-91
2024/03/30 16:46:43;;;;;;;58.17;8.55;;;;;;;;;;4945418;28;20285;-91
2024/03/30 16:49:49;;;;;;;62.13;7.82;;;;;;;;;;4945673;28;20219;-91
2024/03/30 16:52:55;;;;;;;61.05;8.57;;;;;;;;;;4934386;28;20206;-94
2024/03/30 16:56:02;;;;;;;66.50;7.32;;;;;;;;;;4928675;28;20193;-91
2024/03/30 16:59:07;;;;;;;70.03;8.18;;;;;;;;;;4940254;28;20219;-92
2024/03/30 17:02:12;;;;;;;62.67;9.45;;;;;;;;;;4943907;28;20617;-94
2024/03/30 17:05:18;;;;;;;67.50;11.75;;;;;;;;;;4944226;28;20192;-92
2024/03/30 17:08:25;;;;;;;69.22;11.30;;;;;;;;;;4944163;29;20248;-93
2024/03/30 17:11:32;;;;;;;73.85;8.40;;;;;;;;;;4942074;28;20309;-92
2024/03/30 17:14:38;;;;;;;71.43;7.35;;;;;;;;;;4932508;28;20191;-92
2024/03/30 17:17:47;;;;;;;70.72;10.02;;;;;;;;;;4933655;28;20269;-93
2024/03/30 17:20:59;;;;;;;55.15;7.78;;;;;;;;;;4943854;28;20205;-91
2024/03/30 17:24:07;;;;;;;50.85;7.40;;;;;;;;;;4932736;28;20204;-93
2024/03/30 17:27:12;;;;;;;63.38;9.50;;;;;;;;;;4964629;28;20195;-91
2024/03/30 17:30:16;;;;;;;52.58;7.50;;;;;;;;;;4940553;28;20320;-93
2024/03/30 17:33:22;;;;;;;132.60;44.35;;;;;;;;;;4940225;28;20671;-93
2024/03/30 17:36:26;;;;;;;59.83;9.15;;;;;;;;;;4941508;29;20195;-93
2024/03/30 17:39:33;;;;;;;61.50;10.10;;;;;;;;;;4928817;28;20245;-92
2024/03/30 17:42:39;;;;;;;82.40;11.82;;;;;;;;;;4931752;29;20287;-92
2024/03/30 17:45:44;;;;;;;71.97;15.57;;;;;;;;;;4949647;28;20232;-91
2024/03/30 17:48:49;;;;;;;47.53;9.43;;;;;;;;;;4950453;28;20763;-92
2024/03/30 17:51:56;;;;;;;55.08;9.23;;;;;;;;;;4948375;29;20268;-93
2024/03/30 17:55:02;;;;;;;64.38;9.60;;;;;;;;;;4948734;28;20203;-90
2024/03/30 17:58:06;;;;;;;66.25;8.45;;;;;;;;;;4949046;29;20415;-91
2024/03/30 18:01:12;;;;;;;57.33;7.65;;;;;;;;;;4947933;28;20289;-90
2024/03/30 18:04:17;;;;;;;55.75;7.72;;;;;;;;;;4949878;29;20198;-90
2024/03/30 18:07:48;;;;;;;60.05;8.82;;;;;;;;;;4949930;28;20611;-91
2024/03/30 18:10:57;;;;;;;110.20;24.23;;;;;;;;;;4948956;29;20206;-91
2024/03/30 18:14:02;;;;;;;58.45;9.25;;;;;;;;;;4947746;28;20319;-90
2024/03/30 18:17:06;;;;;;;67.57;9.98;;;;;;;;;;4947253;28;20203;-91
2024/03/30 18:20:12;;;;;;;55.25;7.93;;;;;;;;;;4948653;28;20203;-91
2024/03/30 18:23:17;;;;;;;50.78;7.35;;;;;;;;;;4947560;29;20195;-91
2024/03/30 18:26:23;;;;;;;64.35;7.82;;;;;;;;;;4944922;28;20227;-92
2024/03/30 18:29:28;;;;;;;52.13;7.10;;;;;;;;;;4944864;29;20557;-91
2024/03/30 18:32:33;;;;;;;48.47;7.15;;;;;;;;;;4945310;29;20670;-91
2024/03/30 18:35:37;;;;;;;67.07;7.97;;;;;;;;;;4944891;29;20215;-92
2024/03/30 18:38:42;;;;;;;60.85;8.05;;;;;;;;;;4947238;29;20194;-92
2024/03/30 18:41:48;;;;;;;55.10;7.32;;;;;;;;;;4945587;29;20231;-91
2024/03/30 18:44:55;;;;;;;58.55;7.38;;;;;;;;;;4945005;29;20508;-90
2024/03/30 18:48:00;;;;;;;67.03;9.30;;;;;;;;;;4944532;29;20203;-92
2024/03/30 18:51:06;;;;;;;59.58;8.60;;;;;;;;;;4946530;28;20642;-91
2024/03/30 18:54:17;;;;;;;58.60;6.07;;;;;;;;;;4945148;28;20191;-90
2024/03/30 18:57:24;;;;;;;46.63;7.47;;;;;;;;;;4945820;28;20187;-91
2024/03/30 19:00:30;;;;;;;67.70;7.13;;;;;;;;;;4945309;28;20210;-91
2024/03/30 19:03:35;;;;;;;61.67;6.88;;;;;;;;;;4944463;28;20199;-91
2024/03/30 19:06:41;;;;;;;55.63;7.65;;;;;;;;;;4945348;28;20187;-91
2024/03/30 19:09:48;;;;;;;95.70;22.25;;;;;;;;;;4944694;29;20243;-92